MLT weather

Millinocket Municipal Airport
Millinocket, Maine, United States

Public forecast

Using degrees Fahrenheit for public forecast. Weather courtesy of forecast.io.

Current aviation weather report (METAR) for Millinocket Municipal Airport

Retrieved 2020/06/03 11:53 UTC (39 minutes ago):

KMLT 031153Z AUTO 00000KT 10SM OVC080 12/07 A2963 RMK AO2 SLP037 60000 T01170072 10117 20094 58009

Closest aviation forecast (TAF) to Millinocket Municipal Airport

Closest forecast is Houlton International Airport, 47.0 nm (87.0 km) NE. Retrieved 2020/06/03 12:30 UTC (2 minutes ago):

TAF KHUL 031128Z 0312/0412 19005KT P6SM VCSH OVC060 FM031600 24006KT P6SM BKN070 FM040700 24003KT 5SM BR SCT035 FM041000 24003KT P6SM SCT080